Time;durP1;ratioP1;P1;durP2;ratioP2;P2;SDS_P1;SDS_P2;PMS_P1;PMS_P2;Temp;Humidity;BMP_temperature;BMP_pressure;BME280_temperature;BME280_humidity;BME280_pressure;Samples;Min_cycle;Max_cycle;Signal;HPM_P1;HPM_P2
2023/07/27 00:02:01;;;;;;;0.00;0.00;;;14.80;79.70;;;;;;4969018;28;20042;-71
2023/07/27 00:04:26;;;;;;;0.00;0.00;;;14.80;79.60;;;;;;4970591;28;20127;-71
2023/07/27 00:06:52;;;;;;;0.10;0.10;;;14.70;79.60;;;;;;4970471;28;20051;-72
2023/07/27 00:09:17;;;;;;;0.00;0.00;;;14.80;79.90;;;;;;4970349;28;20078;-71
2023/07/27 00:11:43;;;;;;;0.00;0.00;;;14.70;79.80;;;;;;4970446;28;20384;-72
2023/07/27 00:14:09;;;;;;;0.00;0.00;;;14.70;79.80;;;;;;4971125;28;20067;-71
2023/07/27 00:16:34;;;;;;;0.00;0.00;;;14.70;79.70;;;;;;4970802;28;20046;-72
2023/07/27 00:19:00;;;;;;;0.00;0.00;;;14.70;79.70;;;;;;4970723;28;20051;-72
2023/07/27 00:21:25;;;;;;;0.00;0.00;;;14.70;79.90;;;;;;4970145;28;20050;-71
2023/07/27 00:23:51;;;;;;;0.00;0.00;;;14.70;79.80;;;;;;4970144;28;20503;-71
2023/07/27 00:26:17;;;;;;;0.00;0.00;;;14.70;80.20;;;;;;4968946;28;20043;-71
2023/07/27 00:28:42;;;;;;;0.00;0.00;;;14.70;80.20;;;;;;4970241;28;20058;-71
2023/07/27 00:31:08;;;;;;;0.00;0.00;;;14.60;80.10;;;;;;4968747;28;20042;-72
2023/07/27 00:33:34;;;;;;;0.00;0.00;;;14.70;79.80;;;;;;4970326;28;20043;-71
2023/07/27 00:36:00;;;;;;;0.00;0.00;;;14.70;79.90;;;;;;4969682;28;20050;-71
2023/07/27 00:38:27;;;;;;;0.00;0.00;;;14.70;80.10;;;;;;4970805;28;20507;-72
2023/07/27 00:40:53;;;;;;;0.00;0.00;;;14.70;80.40;;;;;;4968992;28;20073;-72
2023/07/27 00:43:18;;;;;;;0.00;0.00;;;14.80;80.50;;;;;;4970344;28;20086;-71
2023/07/27 00:45:46;;;;;;;0.10;0.10;;;14.80;80.60;;;;;;4970025;28;20042;-72
2023/07/27 00:48:12;;;;;;;0.00;0.00;;;14.80;80.60;;;;;;4974109;28;20504;-71
2023/07/27 00:50:38;;;;;;;0.00;0.00;;;14.80;80.40;;;;;;4974371;28;20050;-72
2023/07/27 00:53:09;;;;;;;0.00;0.00;;;14.80;80.20;;;;;;4973104;28;20459;-72
2023/07/27 00:55:35;;;;;;;0.00;0.00;;;14.80;80.00;;;;;;4973698;28;20078;-72
2023/07/27 00:58:01;;;;;;;0.00;0.00;;;14.80;80.20;;;;;;4974350;28;20162;-71
2023/07/27 01:00:29;;;;;;;0.00;0.00;;;14.80;80.50;;;;;;4973928;28;20074;-72
2023/07/27 01:02:54;;;;;;;0.00;0.00;;;14.90;80.30;;;;;;4973826;28;20077;-72
2023/07/27 01:05:20;;;;;;;0.00;0.00;;;14.90;80.50;;;;;;4973727;28;20055;-72
2023/07/27 01:07:46;;;;;;;0.10;0.10;;;14.90;80.70;;;;;;4972768;28;20057;-71
2023/07/27 01:10:11;;;;;;;0.00;0.00;;;14.90;80.80;;;;;;4974363;28;20565;-71
2023/07/27 01:12:58;;;;;;;0.00;0.00;;;14.90;80.90;;;;;;4973831;28;20868;-71
2023/07/27 01:15:29;;;;;;;0.00;0.00;;;14.90;80.80;;;;;;4973159;28;20527;-71
2023/07/27 01:17:54;;;;;;;0.00;0.00;;;14.90;80.60;;;;;;4972196;28;20051;-72
2023/07/27 01:20:34;;;;;;;0.00;0.00;;;14.90;80.50;;;;;;4973924;28;20054;-72
2023/07/27 01:23:15;;;;;;;0.00;0.00;;;14.90;80.40;;;;;;4971483;28;20086;-72
2023/07/27 01:26:10;;;;;;;0.00;0.00;;;14.80;80.10;;;;;;4973277;28;20058;-72
2023/07/27 01:28:57;;;;;;;0.00;0.00;;;14.80;80.00;;;;;;4956436;28;20053;-72
2023/07/27 01:31:26;;;;;;;0.00;0.00;;;14.80;79.90;;;;;;4959495;28;20097;-72
2023/07/27 01:34:06;;;;;;;0.00;0.00;;;14.80;79.80;;;;;;4972369;28;20097;-72
2023/07/27 01:36:38;;;;;;;0.45;0.45;;;14.80;79.90;;;;;;4973062;28;20055;-71
2023/07/27 01:39:07;;;;;;;0.00;0.00;;;14.80;80.10;;;;;;4972182;28;20054;-71
2023/07/27 01:41:33;;;;;;;0.00;0.00;;;14.80;80.10;;;;;;4972077;28;20074;-72
2023/07/27 01:44:01;;;;;;;0.00;0.00;;;14.80;80.20;;;;;;4973240;28;20058;-71
2023/07/27 01:46:30;;;;;;;0.00;0.00;;;14.90;80.30;;;;;;4973085;28;20150;-71
2023/07/27 01:48:56;;;;;;;0.00;0.00;;;14.90;80.30;;;;;;4973306;28;20078;-71
2023/07/27 01:51:24;;;;;;;0.00;0.00;;;14.90;80.40;;;;;;4972635;28;20094;-71
2023/07/27 01:53:50;;;;;;;0.00;0.00;;;14.90;80.50;;;;;;4971946;28;20097;-71
2023/07/27 01:56:17;;;;;;;0.00;0.00;;;14.90;80.30;;;;;;4971745;28;20159;-71
2023/07/27 01:58:44;;;;;;;0.00;0.00;;;15.00;80.40;;;;;;4972912;28;20093;-71
2023/07/27 02:01:10;;;;;;;0.00;0.00;;;14.90;80.30;;;;;;4971698;28;20109;-71
2023/07/27 02:03:36;;;;;;;0.00;0.00;;;14.90;80.50;;;;;;4971750;28;20540;-71
2023/07/27 02:06:02;;;;;;;0.00;0.00;;;15.00;80.40;;;;;;4972086;28;20050;-71
2023/07/27 02:08:27;;;;;;;0.00;0.00;;;14.90;80.20;;;;;;4972819;28;20134;-71
2023/07/27 02:11:03;;;;;;;0.00;0.00;;;14.90;80.30;;;;;;4971904;28;20503;-71
2023/07/27 02:13:38;;;;;;;0.00;0.00;;;15.00;80.30;;;;;;4973097;28;20043;-71
2023/07/27 02:16:39;;;;;;;0.00;0.00;;;15.00;80.40;;;;;;4970963;28;20129;-71
2023/07/27 02:19:06;;;;;;;0.00;0.00;;;15.00;80.40;;;;;;4955790;28;20070;-71
2023/07/27 02:21:34;;;;;;;0.00;0.00;;;15.00;80.40;;;;;;4972126;28;20043;-71
2023/07/27 02:24:01;;;;;;;0.00;0.00;;;15.00;80.50;;;;;;4971349;28;20050;-71
2023/07/27 02:26:27;;;;;;;0.00;0.00;;;15.00;80.60;;;;;;4972405;28;20093;-71
2023/07/27 02:28:53;;;;;;;0.00;0.00;;;15.10;80.70;;;;;;4972983;28;20499;-71
2023/07/27 02:31:19;;;;;;;0.00;0.00;;;15.10;80.60;;;;;;4972658;28;20058;-71
2023/07/27 02:33:44;;;;;;;0.00;0.00;;;15.00;80.50;;;;;;4972137;28;20051;-71
2023/07/27 02:36:10;;;;;;;0.00;0.00;;;15.10;80.60;;;;;;4972029;28;20900;-71
2023/07/27 02:38:36;;;;;;;0.40;0.40;;;15.00;80.60;;;;;;4971478;28;20061;-72
2023/07/27 02:41:02;;;;;;;0.00;0.00;;;15.00;80.50;;;;;;4972053;28;20043;-71
2023/07/27 02:43:28;;;;;;;0.00;0.00;;;15.10;80.70;;;;;;4972050;28;20515;-72
2023/07/27 02:45:59;;;;;;;0.00;0.00;;;15.10;81.00;;;;;;4972096;28;20524;-72
2023/07/27 02:48:26;;;;;;;0.00;0.00;;;15.10;80.90;;;;;;4971136;28;20053;-71
2023/07/27 02:50:52;;;;;;;0.00;0.00;;;15.10;81.00;;;;;;4971795;28;20094;-72
2023/07/27 02:53:18;;;;;;;0.00;0.00;;;15.10;81.20;;;;;;4971145;28;20135;-72
2023/07/27 02:55:57;;;;;;;0.00;0.00;;;15.10;81.30;;;;;;4971884;28;20047;-72
2023/07/27 02:58:23;;;;;;;0.00;0.00;;;15.20;81.10;;;;;;4971522;28;20407;-72
2023/07/27 03:00:54;;;;;;;0.00;0.00;;;15.10;80.90;;;;;;4972255;28;20047;-72
2023/07/27 03:03:20;;;;;;;0.20;0.20;;;15.10;80.80;;;;;;4971688;28;20042;-72
2023/07/27 03:05:45;;;;;;;0.00;0.00;;;15.10;81.10;;;;;;4971836;28;20466;-72
2023/07/27 03:08:11;;;;;;;0.00;0.00;;;15.10;81.10;;;;;;4969192;28;20136;-72
2023/07/27 03:10:36;;;;;;;0.00;0.00;;;15.10;81.40;;;;;;4970531;28;20506;-72
2023/07/27 03:13:02;;;;;;;0.22;0.22;;;15.10;81.40;;;;;;4970734;28;20086;-72
2023/07/27 03:15:28;;;;;;;0.00;0.00;;;15.10;81.40;;;;;;4971692;28;20047;-72
2023/07/27 03:17:53;;;;;;;0.00;0.00;;;15.10;81.80;;;;;;4969756;28;20130;-72
2023/07/27 03:20:19;;;;;;;0.00;0.00;;;15.10;82.10;;;;;;4970877;28;20169;-72
2023/07/27 03:22:44;;;;;;;0.10;0.10;;;15.10;82.00;;;;;;4971061;28;20097;-72
2023/07/27 03:25:10;;;;;;;0.00;0.00;;;15.10;82.00;;;;;;4970627;28;20062;-72
2023/07/27 03:27:35;;;;;;;0.00;0.00;;;15.10;82.10;;;;;;4971031;28;20051;-73
2023/07/27 03:30:01;;;;;;;0.00;0.00;;;15.10;82.10;;;;;;4971585;28;20495;-72
2023/07/27 03:32:26;;;;;;;0.05;0.05;;;15.10;82.20;;;;;;4970849;28;20069;-72
2023/07/27 03:34:52;;;;;;;0.00;0.00;;;15.10;82.50;;;;;;4971305;28;20038;-72
2023/07/27 03:37:17;;;;;;;0.00;0.00;;;15.10;82.30;;;;;;4970635;28;20069;-73
2023/07/27 03:39:43;;;;;;;0.00;0.00;;;15.20;82.40;;;;;;4971448;28;20129;-73
2023/07/27 03:42:08;;;;;;;0.00;0.00;;;15.20;82.40;;;;;;4971392;28;20053;-73
2023/07/27 03:44:34;;;;;;;0.00;0.00;;;15.20;82.30;;;;;;4970739;28;20182;-73
2023/07/27 03:46:59;;;;;;;0.00;0.00;;;15.10;83.00;;;;;;4971129;28;20133;-73
2023/07/27 03:49:25;;;;;;;0.00;0.00;;;15.10;82.70;;;;;;4971065;28;20039;-73
2023/07/27 03:51:51;;;;;;;0.03;0.03;;;15.10;83.30;;;;;;4970862;28;20181;-73
2023/07/27 03:54:16;;;;;;;0.13;0.13;;;15.10;83.00;;;;;;4970294;28;20129;-73
2023/07/27 03:56:42;;;;;;;0.00;0.00;;;15.10;83.30;;;;;;4970836;28;20043;-73
2023/07/27 03:59:10;;;;;;;0.00;0.00;;;15.10;83.30;;;;;;4970507;28;20055;-72
2023/07/27 04:01:35;;;;;;;0.00;0.00;;;15.10;83.40;;;;;;4970741;28;20609;-73
2023/07/27 04:04:01;;;;;;;0.00;0.00;;;15.10;83.80;;;;;;4970726;28;20047;-73
2023/07/27 04:06:26;;;;;;;0.00;0.00;;;15.10;84.10;;;;;;4971580;28;20109;-73
2023/07/27 04:08:52;;;;;;;0.00;0.00;;;15.10;84.60;;;;;;4970944;28;20404;-73
2023/07/27 04:11:17;;;;;;;0.00;0.00;;;15.10;84.50;;;;;;4954267;28;20392;-73
2023/07/27 04:13:43;;;;;;;0.00;0.00;;;15.10;84.40;;;;;;4970788;28;20414;-73
2023/07/27 04:16:09;;;;;;;0.10;0.10;;;15.10;84.20;;;;;;4970903;28;20534;-73
2023/07/27 04:18:34;;;;;;;0.00;0.00;;;15.10;84.30;;;;;;4970221;28;20584;-72
2023/07/27 04:21:00;;;;;;;0.00;0.00;;;15.10;83.90;;;;;;4970479;28;20051;-72
2023/07/27 04:23:25;;;;;;;0.00;0.00;;;15.10;84.00;;;;;;4970201;28;20050;-72
2023/07/27 04:25:51;;;;;;;0.00;0.00;;;15.10;84.70;;;;;;4969295;28;20031;-73
2023/07/27 04:28:17;;;;;;;0.25;0.25;;;15.10;84.70;;;;;;4969931;28;20053;-72
2023/07/27 04:30:44;;;;;;;0.00;0.00;;;15.10;84.90;;;;;;4970438;28;20061;-73
2023/07/27 04:33:09;;;;;;;0.00;0.00;;;15.10;85.00;;;;;;4969195;28;20065;-72
2023/07/27 04:35:35;;;;;;;0.00;0.00;;;15.00;85.10;;;;;;4969836;28;20047;-72
2023/07/27 04:38:00;;;;;;;0.00;0.00;;;15.00;85.00;;;;;;4970411;28;20093;-72
2023/07/27 04:40:26;;;;;;;0.00;0.00;;;15.00;85.00;;;;;;4969830;28;20431;-73
2023/07/27 04:42:51;;;;;;;0.00;0.00;;;15.10;85.30;;;;;;4951866;28;20774;-72
2023/07/27 04:45:17;;;;;;;0.00;0.00;;;15.10;85.20;;;;;;4970066;28;20066;-72
2023/07/27 04:47:42;;;;;;;0.00;0.00;;;15.10;85.20;;;;;;4969181;28;20117;-73
2023/07/27 04:50:09;;;;;;;16.38;1.20;;;15.10;85.60;;;;;;4969795;28;20045;-72
2023/07/27 04:52:34;;;;;;;0.00;0.00;;;15.10;85.80;;;;;;4970029;28;20053;-72
2023/07/27 04:55:00;;;;;;;0.63;0.63;;;15.10;85.80;;;;;;4969626;28;20771;-73
2023/07/27 04:57:25;;;;;;;0.00;0.00;;;15.10;85.60;;;;;;4970228;28;20039;-73
2023/07/27 04:59:51;;;;;;;0.00;0.00;;;15.10;85.20;;;;;;4968034;28;20070;-73
2023/07/27 05:02:16;;;;;;;0.00;0.00;;;15.10;85.50;;;;;;4969015;28;20495;-72
2023/07/27 05:04:42;;;;;;;0.00;0.00;;;15.10;85.70;;;;;;4969813;28;20522;-73
2023/07/27 05:07:07;;;;;;;0.00;0.00;;;15.10;85.50;;;;;;4970330;28;20046;-72
2023/07/27 05:09:33;;;;;;;0.00;0.00;;;15.10;85.40;;;;;;4970153;28;20042;-73
2023/07/27 05:11:58;;;;;;;0.10;0.10;;;15.10;85.10;;;;;;4969106;28;20038;-73
2023/07/27 05:14:24;;;;;;;0.00;0.00;;;15.10;84.90;;;;;;4969767;28;20541;-73
2023/07/27 05:16:49;;;;;;;0.10;0.10;;;15.20;84.90;;;;;;4969597;28;20059;-73
2023/07/27 05:19:15;;;;;;;0.00;0.00;;;15.10;85.20;;;;;;4968445;28;20059;-73
2023/07/27 05:21:41;;;;;;;0.00;0.00;;;15.20;85.30;;;;;;4968078;28;20050;-73
2023/07/27 05:24:06;;;;;;;0.08;0.08;;;15.20;85.20;;;;;;4968244;28;20042;-73
2023/07/27 05:26:32;;;;;;;0.00;0.00;;;15.20;85.00;;;;;;4968347;28;20746;-73
2023/07/27 05:28:57;;;;;;;1.00;0.57;;;15.20;85.50;;;;;;4969167;28;20545;-73
2023/07/27 05:31:23;;;;;;;0.00;0.00;;;15.20;85.30;;;;;;4969415;28;20755;-73
2023/07/27 05:33:48;;;;;;;0.00;0.00;;;15.20;85.60;;;;;;4971510;28;20418;-73
2023/07/27 05:36:14;;;;;;;0.00;0.00;;;15.20;85.70;;;;;;4972324;28;20454;-73
2023/07/27 05:38:39;;;;;;;0.00;0.00;;;15.30;85.90;;;;;;4972529;28;20664;-73
2023/07/27 05:41:05;;;;;;;0.00;0.00;;;15.30;86.10;;;;;;4968603;28;20109;-74
2023/07/27 05:43:31;;;;;;;1.38;0.65;;;15.30;86.00;;;;;;4970334;28;20496;-70
2023/07/27 05:45:56;;;;;;;0.57;0.52;;;15.30;85.70;;;;;;4971813;28;20073;-72
2023/07/27 05:48:22;;;;;;;0.20;0.20;;;15.40;86.00;;;;;;4972756;28;20087;-72
2023/07/27 05:50:47;;;;;;;0.00;0.00;;;15.30;85.90;;;;;;4972401;28;20093;-73
2023/07/27 05:53:13;;;;;;;0.00;0.00;;;15.40;86.40;;;;;;4971595;28;20084;-73
2023/07/27 05:55:39;;;;;;;0.00;0.00;;;15.40;86.20;;;;;;4972469;28;20125;-73
2023/07/27 05:58:05;;;;;;;0.00;0.00;;;15.40;86.10;;;;;;4970801;28;20078;-73
2023/07/27 06:00:30;;;;;;;0.00;0.00;;;15.40;85.90;;;;;;4972500;28;20043;-71
2023/07/27 06:02:56;;;;;;;0.00;0.00;;;15.40;86.50;;;;;;4972725;28;20479;-73
2023/07/27 06:05:22;;;;;;;0.00;0.00;;;15.40;86.40;;;;;;4972058;28;20046;-73
2023/07/27 06:07:47;;;;;;;0.00;0.00;;;15.40;86.20;;;;;;4972344;28;20051;-74
2023/07/27 06:10:13;;;;;;;0.00;0.00;;;15.40;86.60;;;;;;4971993;28;20055;-73
2023/07/27 06:12:38;;;;;;;0.00;0.00;;;15.40;87.00;;;;;;4972135;28;20116;-73
2023/07/27 06:15:04;;;;;;;0.05;0.05;;;15.40;87.50;;;;;;4971905;28;20050;-75
2023/07/27 06:17:30;;;;;;;0.13;0.13;;;15.40;88.00;;;;;;4955872;28;20046;-73
2023/07/27 06:19:56;;;;;;;0.00;0.00;;;15.40;88.20;;;;;;4962003;28;20050;-71
2023/07/27 06:22:21;;;;;;;0.00;0.00;;;15.60;88.10;;;;;;4966671;28;20126;-71
2023/07/27 06:24:47;;;;;;;0.00;0.00;;;15.80;88.00;;;;;;4967760;28;20047;-74
2023/07/27 06:27:12;;;;;;;0.10;0.10;;;15.90;87.50;;;;;;4963283;28;20043;-73
2023/07/27 06:29:38;;;;;;;0.43;0.43;;;15.90;87.00;;;;;;4972147;28;20042;-73
2023/07/27 06:32:04;;;;;;;0.20;0.20;;;15.90;86.50;;;;;;4968117;28;20055;-68
2023/07/27 06:34:29;;;;;;;0.00;0.00;;;15.90;86.40;;;;;;4962589;28;20039;-68
2023/07/27 06:36:55;;;;;;;0.00;0.00;;;15.90;86.30;;;;;;4969156;28;20042;-69
2023/07/27 06:39:20;;;;;;;0.00;0.00;;;16.00;86.40;;;;;;4959429;28;20075;-69
2023/07/27 06:41:46;;;;;;;0.00;0.00;;;16.10;86.20;;;;;;4969065;28;20050;-68
2023/07/27 06:44:11;;;;;;;0.00;0.00;;;16.20;85.60;;;;;;4962219;28;20047;-68
2023/07/27 06:46:37;;;;;;;0.00;0.00;;;16.40;85.20;;;;;;4961193;28;20078;-76
2023/07/27 06:49:03;;;;;;;0.00;0.00;;;16.50;85.30;;;;;;4970523;28;20524;-75
2023/07/27 06:51:28;;;;;;;0.00;0.00;;;16.50;85.50;;;;;;4962631;28;20106;-75
2023/07/27 06:53:54;;;;;;;0.00;0.00;;;16.40;85.60;;;;;;4961368;28;20071;-74
2023/07/27 06:56:20;;;;;;;0.00;0.00;;;16.30;85.80;;;;;;4962386;28;20093;-75
2023/07/27 06:58:46;;;;;;;0.10;0.10;;;16.30;85.50;;;;;;4968441;28;20443;-75
2023/07/27 07:01:11;;;;;;;0.00;0.00;;;16.20;85.10;;;;;;4969072;28;20070;-75
2023/07/27 07:03:37;;;;;;;0.00;0.00;;;16.20;85.00;;;;;;4964444;28;20035;-75
2023/07/27 07:06:03;;;;;;;0.10;0.10;;;16.20;85.00;;;;;;4961221;28;20073;-75
2023/07/27 07:08:29;;;;;;;0.00;0.00;;;16.20;86.10;;;;;;4964811;28;20050;-73
2023/07/27 07:10:55;;;;;;;0.45;0.45;;;16.20;85.70;;;;;;4962608;28;20512;-77
2023/07/27 07:13:21;;;;;;;0.00;0.00;;;16.20;86.60;;;;;;4962873;28;20054;-74
2023/07/27 07:15:48;;;;;;;0.00;0.00;;;16.20;86.70;;;;;;4965887;28;20063;-75
2023/07/27 07:18:14;;;;;;;0.00;0.00;;;16.20;87.10;;;;;;4959829;28;20051;-75
2023/07/27 07:20:39;;;;;;;0.17;0.17;;;16.20;86.50;;;;;;4958696;28;20066;-75
2023/07/27 07:23:05;;;;;;;3.10;0.77;;;16.20;87.40;;;;;;4969380;28;20042;-75
2023/07/27 07:25:30;;;;;;;0.00;0.00;;;16.20;87.10;;;;;;4969965;28;20050;-75
2023/07/27 07:27:56;;;;;;;0.00;0.00;;;16.20;87.40;;;;;;4967160;28;20126;-75
2023/07/27 07:30:22;;;;;;;0.00;0.00;;;16.20;87.30;;;;;;4968583;28;20063;-74
2023/07/27 07:32:49;;;;;;;0.00;0.00;;;16.10;86.60;;;;;;4962430;28;20130;-73
2023/07/27 07:35:15;;;;;;;0.00;0.00;;;16.10;86.40;;;;;;4960379;28;20045;-74
2023/07/27 07:37:41;;;;;;;0.00;0.00;;;16.10;86.80;;;;;;4962117;28;20055;-74
2023/07/27 07:40:07;;;;;;;0.00;0.00;;;16.10;87.10;;;;;;4964708;28;20082;-74
2023/07/27 07:42:33;;;;;;;0.00;0.00;;;16.10;86.90;;;;;;4959497;28;20086;-74
2023/07/27 07:44:58;;;;;;;0.00;0.00;;;16.10;86.80;;;;;;4968532;28;20078;-73
2023/07/27 07:47:24;;;;;;;0.00;0.00;;;16.10;86.80;;;;;;4969080;28;20045;-73
2023/07/27 07:49:49;;;;;;;0.00;0.00;;;16.10;87.40;;;;;;4969206;28;20045;-73
2023/07/27 07:52:15;;;;;;;0.00;0.00;;;16.10;87.50;;;;;;4963040;28;20134;-73
2023/07/27 07:54:41;;;;;;;0.00;0.00;;;16.10;87.60;;;;;;4967094;28;20404;-73
2023/07/27 07:57:06;;;;;;;0.00;0.00;;;16.10;87.90;;;;;;4974793;28;20126;-73
2023/07/27 07:59:32;;;;;;;0.00;0.00;;;16.10;87.80;;;;;;4961773;28;20077;-73
2023/07/27 08:01:59;;;;;;;0.00;0.00;;;16.10;87.50;;;;;;4959648;28;20058;-73
2023/07/27 08:04:24;;;;;;;0.00;0.00;;;16.10;87.70;;;;;;4966052;28;20695;-72
2023/07/27 08:06:50;;;;;;;0.00;0.00;;;16.10;87.70;;;;;;4965829;28;20134;-73
2023/07/27 08:09:16;;;;;;;0.00;0.00;;;16.10;87.70;;;;;;4968048;28;20053;-74
2023/07/27 08:11:41;;;;;;;0.00;0.00;;;16.10;87.90;;;;;;4964967;28;20495;-74
2023/07/27 08:14:10;;;;;;;0.00;0.00;;;16.10;88.10;;;;;;4965803;28;20098;-74
2023/07/27 08:16:36;;;;;;;0.00;0.00;;;16.20;87.90;;;;;;4968098;28;20080;-74
2023/07/27 08:19:02;;;;;;;0.00;0.00;;;16.20;88.20;;;;;;4964110;28;20602;-74
2023/07/27 08:21:28;;;;;;;0.00;0.00;;;16.20;88.30;;;;;;4964393;28;20050;-73
2023/07/27 08:23:54;;;;;;;0.00;0.00;;;16.20;88.80;;;;;;4963650;28;20050;-73
2023/07/27 08:26:19;;;;;;;0.00;0.00;;;16.20;88.90;;;;;;4960854;28;20046;-73
2023/07/27 08:28:48;;;;;;;0.00;0.00;;;16.20;88.90;;;;;;4968023;28;20427;-74
2023/07/27 08:31:14;;;;;;;0.00;0.00;;;16.20;89.20;;;;;;4968111;28;20046;-73
2023/07/27 08:33:39;;;;;;;0.00;0.00;;;16.20;88.90;;;;;;4966389;28;20050;-74
2023/07/27 08:36:05;;;;;;;0.00;0.00;;;16.20;88.70;;;;;;4968179;28;20047;-74
2023/07/27 08:38:31;;;;;;;0.00;0.00;;;16.20;88.50;;;;;;4965845;28;20098;-74
2023/07/27 08:41:01;;;;;;;0.00;0.00;;;16.20;88.20;;;;;;4962966;28;20031;-74
2023/07/27 08:43:28;;;;;;;0.00;0.00;;;16.30;88.10;;;;;;4966365;28;20054;-73
2023/07/27 08:45:54;;;;;;;0.00;0.00;;;16.30;87.90;;;;;;4963546;28;20051;-73
2023/07/27 08:48:20;;;;;;;0.00;0.00;;;16.30;87.90;;;;;;4961525;28;20039;-74
2023/07/27 08:50:47;;;;;;;0.00;0.00;;;16.40;88.20;;;;;;4961908;28;20042;-74
2023/07/27 08:53:14;;;;;;;0.00;0.00;;;16.40;88.00;;;;;;4960322;28;20063;-74
2023/07/27 08:55:40;;;;;;;0.00;0.00;;;16.40;88.00;;;;;;4967717;28;20047;-74
2023/07/27 08:58:06;;;;;;;0.00;0.00;;;16.50;88.40;;;;;;4965146;28;20046;-74
2023/07/27 09:00:33;;;;;;;0.00;0.00;;;16.40;88.30;;;;;;4960308;28;20047;-73
2023/07/27 09:02:59;;;;;;;0.00;0.00;;;16.50;88.50;;;;;;4967026;28;20046;-74
2023/07/27 09:05:38;;;;;;;0.00;0.00;;;16.50;88.40;;;;;;4961383;28;20082;-74
2023/07/27 09:08:10;;;;;;;0.00;0.00;;;16.50;88.40;;;;;;4963787;28;20054;-73
2023/07/27 09:10:37;;;;;;;0.00;0.00;;;16.50;88.10;;;;;;4966016;28;20051;-74
2023/07/27 09:13:03;;;;;;;0.00;0.00;;;16.60;88.10;;;;;;4967984;28;20392;-74
2023/07/27 09:15:31;;;;;;;0.00;0.00;;;16.60;87.90;;;;;;4965465;28;20626;-73
2023/07/27 09:17:58;;;;;;;0.00;0.00;;;16.60;87.80;;;;;;4966466;28;20054;-74
2023/07/27 09:20:34;;;;;;;0.00;0.00;;;16.60;87.70;;;;;;4968028;28;20047;-74
2023/07/27 09:23:00;;;;;;;0.00;0.00;;;16.60;87.70;;;;;;4968322;28;20125;-73
2023/07/27 09:25:25;;;;;;;0.00;0.00;;;16.70;87.60;;;;;;4966424;28;20119;-74
2023/07/27 09:27:53;;;;;;;0.00;0.00;;;16.70;88.50;;;;;;4967350;28;20043;-73
2023/07/27 09:30:20;;;;;;;0.00;0.00;;;16.70;88.20;;;;;;4969568;28;20061;-73
2023/07/27 09:32:50;;;;;;;0.00;0.00;;;16.80;88.30;;;;;;4969728;28;20043;-74
2023/07/27 09:35:17;;;;;;;0.00;0.00;;;16.80;88.40;;;;;;4965363;28;20101;-74
2023/07/27 09:37:44;;;;;;;0.10;0.10;;;16.90;88.10;;;;;;4962188;28;20059;-74
2023/07/27 09:40:14;;;;;;;0.00;0.00;;;16.90;88.20;;;;;;4969334;28;20581;-73
2023/07/27 09:42:41;;;;;;;0.00;0.00;;;16.90;88.50;;;;;;4971591;28;20439;-73
2023/07/27 09:45:08;;;;;;;0.00;0.00;;;16.90;88.10;;;;;;4970345;28;20055;-73
2023/07/27 09:47:34;;;;;;;0.00;0.00;;;17.00;88.20;;;;;;4963116;28;20447;-73
2023/07/27 09:50:00;;;;;;;0.00;0.00;;;17.10;88.30;;;;;;4964076;28;20055;-72
2023/07/27 09:52:27;;;;;;;0.00;0.00;;;17.10;88.60;;;;;;4964709;28;20055;-74
2023/07/27 09:54:58;;;;;;;0.00;0.00;;;17.10;88.90;;;;;;4969987;28;20049;-74
2023/07/27 09:57:25;;;;;;;0.00;0.00;;;17.20;89.40;;;;;;4963765;28;20046;-74
2023/07/27 09:59:51;;;;;;;0.00;0.00;;;17.20;89.60;;;;;;4966549;28;20070;-73
2023/07/27 10:02:17;;;;;;;0.00;0.00;;;17.20;89.70;;;;;;4969796;28;20074;-73
2023/07/27 10:04:43;;;;;;;0.00;0.00;;;17.20;89.40;;;;;;4964852;28;20034;-73
2023/07/27 10:07:10;;;;;;;0.00;0.00;;;17.30;89.30;;;;;;4966025;28;20043;-73
2023/07/27 10:09:38;;;;;;;0.00;0.00;;;17.30;89.30;;;;;;4967225;28;20049;-73
2023/07/27 10:12:04;;;;;;;0.00;0.00;;;17.50;89.60;;;;;;4970520;28;20411;-72
2023/07/27 10:14:31;;;;;;;0.00;0.00;;;17.50;89.70;;;;;;4969850;28;20049;-73
2023/07/27 10:17:08;;;;;;;0.00;0.00;;;17.60;89.80;;;;;;4970222;28;20519;-73
2023/07/27 10:19:49;;;;;;;0.00;0.00;;;17.60;89.70;;;;;;4970468;28;20078;-73
2023/07/27 10:22:17;;;;;;;0.00;0.00;;;17.60;89.40;;;;;;4960344;28;20074;-73
2023/07/27 10:24:50;;;;;;;0.00;0.00;;;17.60;89.30;;;;;;4970404;28;20515;-73
2023/07/27 10:27:20;;;;;;;0.00;0.00;;;17.70;89.50;;;;;;4969996;28;20046;-73
2023/07/27 10:29:53;;;;;;;0.00;0.00;;;17.70;89.40;;;;;;4970397;28;20230;-73
2023/07/27 10:32:19;;;;;;;0.00;0.00;;;17.70;89.20;;;;;;4969503;28;20053;-73
2023/07/27 10:34:49;;;;;;;0.00;0.00;;;17.70;89.10;;;;;;4986117;28;20042;-73
2023/07/27 10:37:15;;;;;;;0.00;0.00;;;17.70;89.30;;;;;;4970626;28;20050;-73
2023/07/27 10:39:50;;;;;;;0.00;0.00;;;17.70;89.20;;;;;;4961184;28;20039;-74
2023/07/27 10:42:26;;;;;;;0.00;0.00;;;17.80;89.20;;;;;;4968431;28;20741;-74
2023/07/27 10:44:57;;;;;;;0.30;0.30;;;17.90;89.10;;;;;;4969787;28;20085;-74
2023/07/27 10:47:37;;;;;;;0.00;0.00;;;17.90;89.20;;;;;;4970756;28;20049;-73
2023/07/27 10:50:03;;;;;;;0.00;0.00;;;18.00;89.40;;;;;;4964566;28;20159;-73
2023/07/27 10:52:39;;;;;;;0.00;0.00;;;18.10;89.50;;;;;;4967537;28;20089;-73
2023/07/27 10:55:06;;;;;;;0.00;0.00;;;18.10;89.60;;;;;;4967368;28;20035;-73
2023/07/27 10:57:33;;;;;;;0.00;0.00;;;18.10;89.50;;;;;;4968893;28;20046;-75
2023/07/27 11:00:00;;;;;;;0.00;0.00;;;18.10;89.40;;;;;;4964274;28;20101;-74
2023/07/27 11:02:28;;;;;;;0.00;0.00;;;18.10;89.50;;;;;;4963861;28;20046;-75
2023/07/27 11:04:58;;;;;;;0.00;0.00;;;18.20;89.80;;;;;;4963559;28;20043;-75
2023/07/27 11:07:35;;;;;;;0.00;0.00;;;18.20;89.60;;;;;;4970736;28;20384;-75
2023/07/27 11:10:08;;;;;;;0.00;0.00;;;18.20;89.80;;;;;;4966817;28;20034;-74
2023/07/27 11:13:00;;;;;;;0.00;0.00;;;18.20;89.90;;;;;;4968651;28;20402;-72
2023/07/27 11:15:32;;;;;;;;;;;18.30;89.70;;;;;;4959585;28;20462;-71
2023/07/27 11:17:59;;;;;;;;;;;18.30;89.70;;;;;;4967823;28;20406;-71
2023/07/27 11:20:28;;;;;;;0.00;0.00;;;18.40;90.00;;;;;;4961019;28;19922;-71
2023/07/27 11:22:55;;;;;;;0.00;0.00;;;18.50;89.90;;;;;;4968606;28;20042;-71
2023/07/27 11:25:22;;;;;;;0.00;0.00;;;18.50;90.00;;;;;;4969783;28;20392;-71
2023/07/27 11:27:49;;;;;;;0.00;0.00;;;18.50;89.70;;;;;;4969419;28;20049;-71
2023/07/27 11:30:17;;;;;;;0.00;0.00;;;18.60;90.10;;;;;;4963971;28;20055;-69
2023/07/27 11:32:55;;;;;;;0.00;0.00;;;18.60;90.10;;;;;;4967508;28;20081;-69
2023/07/27 11:35:20;;;;;;;0.00;0.00;;;18.80;90.00;;;;;;4957749;28;20558;-69
2023/07/27 11:37:47;;;;;;;0.00;0.00;;;18.90;89.70;;;;;;4959383;28;20047;-69
2023/07/27 11:40:19;;;;;;;0.00;0.00;;;18.90;89.70;;;;;;4968397;28;20533;-69
2023/07/27 11:42:45;;;;;;;0.00;0.00;;;19.00;89.60;;;;;;4970264;28;20439;-69
2023/07/27 11:45:11;;;;;;;0.00;0.00;;;19.00;89.40;;;;;;4963907;28;20082;-69
2023/07/27 11:47:38;;;;;;;0.00;0.00;;;19.00;89.30;;;;;;4969544;28;20109;-69
2023/07/27 11:50:06;;;;;;;0.00;0.00;;;19.00;89.30;;;;;;4970390;28;20623;-68
2023/07/27 11:52:31;;;;;;;0.00;0.00;;;19.00;89.10;;;;;;4957356;28;20081;-68
2023/07/27 11:55:01;;;;;;;0.00;0.00;;;19.00;89.10;;;;;;4965268;28;20086;-68
2023/07/27 11:57:27;;;;;;;0.00;0.00;;;18.90;89.10;;;;;;4966501;28;20089;-68
2023/07/27 12:00:12;;;;;;;0.00;0.00;;;18.90;89.00;;;;;;4969089;28;20053;-69
2023/07/27 12:02:39;;;;;;;0.00;0.00;;;18.80;89.30;;;;;;4953786;28;20043;-68
2023/07/27 12:05:05;;;;;;;0.00;0.00;;;18.80;89.30;;;;;;4969016;28;20046;-69
2023/07/27 12:07:34;;;;;;;0.00;0.00;;;18.80;89.30;;;;;;4968781;28;20051;-70
2023/07/27 12:10:00;;;;;;;0.00;0.00;;;18.90;89.10;;;;;;4969101;28;20511;-69
2023/07/27 12:12:26;;;;;;;0.00;0.00;;;18.90;89.20;;;;;;4970416;28;20055;-69
2023/07/27 12:14:54;;;;;;;0.00;0.00;;;18.90;89.00;;;;;;4969560;28;20464;-69
2023/07/27 12:17:26;;;;;;;0.00;0.00;;;18.90;89.30;;;;;;4960741;28;20059;-69
2023/07/27 12:19:51;;;;;;;;;;;18.90;89.50;;;;;;4965770;28;20074;-69
2023/07/27 12:22:18;;;;;;;0.00;0.00;;;19.00;89.40;;;;;;4969701;28;19930;-68
2023/07/27 12:24:44;;;;;;;0.00;0.00;;;19.00;89.40;;;;;;4970004;28;20147;-68
2023/07/27 12:27:10;;;;;;;0.00;0.00;;;19.10;89.40;;;;;;4970107;28;20046;-68
2023/07/27 12:29:35;;;;;;;0.00;0.00;;;19.10;89.30;;;;;;4970169;28;20046;-69
2023/07/27 12:32:01;;;;;;;0.00;0.00;;;19.00;89.30;;;;;;4974606;28;20093;-68
2023/07/27 12:34:27;;;;;;;0.00;0.00;;;19.00;89.20;;;;;;4970245;28;20039;-69
2023/07/27 12:36:52;;;;;;;0.00;0.00;;;19.00;89.20;;;;;;4970389;28;20070;-69
2023/07/27 12:39:18;;;;;;;0.00;0.00;;;19.00;89.20;;;;;;4970467;28;20407;-69
2023/07/27 12:41:44;;;;;;;0.00;0.00;;;19.00;89.30;;;;;;4970506;28;20595;-69
2023/07/27 12:44:09;;;;;;;0.00;0.00;;;18.90;89.30;;;;;;4970348;28;20038;-68
2023/07/27 12:46:35;;;;;;;0.00;0.00;;;18.90;89.30;;;;;;4966897;28;20051;-69
2023/07/27 12:49:00;;;;;;;0.00;0.00;;;19.00;89.10;;;;;;4968719;28;20185;-69